createdAt,value
2022-08-12T00:00:22.372Z,98538.69
2022-08-12T00:02:01.957Z,98536.81
2022-08-12T00:02:45.548Z,98541.75
2022-08-12T00:03:47.242Z,98543.66
2022-08-12T00:04:50.185Z,98539.38
2022-08-12T00:06:04.095Z,98543.94
2022-08-12T00:07:07.275Z,98536.97
2022-08-12T00:08:09.015Z,98539.63
2022-08-12T00:09:10.530Z,98539.94
2022-08-12T00:10:16.397Z,98537.97
2022-08-12T00:11:23.047Z,98542.97
2022-08-12T00:12:24.573Z,98548.34
2022-08-12T00:13:26.197Z,98545.25
2022-08-12T00:14:27.846Z,98537.50
2022-08-12T00:15:30.426Z,98537.47
2022-08-12T00:16:32.142Z,98540.84
2022-08-12T00:17:34.590Z,98544.31
2022-08-12T00:18:37.253Z,98546.56
2022-08-12T00:19:38.869Z,98535.00
2022-08-12T00:20:41.867Z,98544.25
2022-08-12T00:21:44.291Z,98545.03
2022-08-12T00:22:58.715Z,98542.28
2022-08-12T00:24:01.077Z,98545.38
2022-08-12T00:25:03.919Z,98541.84
2022-08-12T00:26:22.291Z,98540.63
2022-08-12T00:27:27.567Z,98543.25
2022-08-12T00:28:45.982Z,98537.94
2022-08-12T00:29:48.272Z,98534.38
2022-08-12T00:30:50.197Z,98534.03
2022-08-12T00:31:51.746Z,98535.25
2022-08-12T00:32:54.636Z,98537.53
2022-08-12T00:33:59.366Z,98528.63
2022-08-12T00:35:02.128Z,98535.56
2022-08-12T00:36:14.894Z,98539.81
2022-08-12T00:37:32.490Z,98543.31
2022-08-12T00:38:34.024Z,98530.22
2022-08-12T00:39:36.919Z,98535.19
2022-08-12T00:40:40.402Z,98530.91
2022-08-12T00:41:42.116Z,98532.84
2022-08-12T00:42:48.467Z,98535.13
2022-08-12T00:43:51.500Z,98529.66
2022-08-12T00:44:57.871Z,98537.00
2022-08-12T00:45:59.490Z,98535.81
2022-08-12T00:47:01.861Z,98526.59
2022-08-12T00:48:03.727Z,98530.97
2022-08-12T00:49:07.735Z,98524.78
2022-08-12T00:50:10.417Z,98525.91
2022-08-12T00:51:11.978Z,98527.03
2022-08-12T00:52:13.510Z,98533.22
2022-08-12T00:53:15.315Z,98527.09
2022-08-12T00:54:20.725Z,98527.09
2022-08-12T00:55:22.251Z,98528.63
2022-08-12T00:56:27.850Z,98523.56
2022-08-12T00:57:32.715Z,98531.28
2022-08-12T00:58:34.745Z,98528.53
2022-08-12T00:59:42.048Z,98528.16
2022-08-12T01:00:44.834Z,98528.84
2022-08-12T01:02:11.305Z,98523.09
2022-08-12T01:03:13.552Z,98527.72
2022-08-12T01:04:20.063Z,98530.13
2022-08-12T01:05:24.108Z,98527.81
2022-08-12T01:06:27.635Z,98528.34
2022-08-12T01:07:29.678Z,98524.78
2022-08-12T01:08:31.550Z,98530.97
2022-08-12T01:09:33.552Z,98529.38
2022-08-12T01:10:37.490Z,98528.19
2022-08-12T01:11:39.060Z,98523.13
2022-08-12T01:12:42.371Z,98523.84
2022-08-12T01:13:47.809Z,98528.84
2022-08-12T01:14:50.075Z,98535.09
2022-08-12T01:15:57.793Z,98526.28
2022-08-12T01:16:59.815Z,98524.78
2022-08-12T01:18:03.850Z,98523.97
2022-08-12T01:19:05.764Z,98531.25
2022-08-12T01:20:11.027Z,98531.63
2022-08-12T01:21:33.967Z,98521.63
2022-08-12T01:22:57.841Z,98528.53
2022-08-12T01:24:43.875Z,98523.81
2022-08-12T01:25:56.116Z,98521.44
2022-08-12T01:26:59.791Z,98531.44
2022-08-12T01:28:03.918Z,98529.53
2022-08-12T01:29:07.355Z,98530.28
2022-08-12T01:30:12.887Z,98527.94
2022-08-12T01:31:17.319Z,98524.09
2022-08-12T01:32:21.099Z,98530.22
2022-08-12T01:33:26.418Z,98527.16
2022-08-12T01:34:36.314Z,98530.59
2022-08-12T01:35:44.338Z,98532.47
2022-08-12T01:37:01.771Z,98532.38
2022-08-12T01:38:06.143Z,98533.16
2022-08-12T01:39:08.557Z,98527.31
2022-08-12T01:40:35.888Z,98538.84
2022-08-12T01:41:38.569Z,98537.38
2022-08-12T01:42:49.172Z,98527.31
2022-08-12T01:43:53.171Z,98530.72
2022-08-12T01:44:56.248Z,98529.94
2022-08-12T01:46:09.025Z,98522.63
2022-08-12T01:47:22.087Z,98531.41
2022-08-12T01:48:39.074Z,98525.97
2022-08-12T01:49:40.511Z,98529.75
2022-08-12T01:51:05.442Z,98514.31
2022-08-12T01:52:23.338Z,98523.19
2022-08-12T01:53:31.148Z,98519.69
2022-08-12T01:54:53.068Z,98512.69
2022-08-12T01:55:55.890Z,98508.47
2022-08-12T01:57:10.484Z,98514.63
2022-08-12T01:58:18.678Z,98508.78
2022-08-12T01:59:41.493Z,98504.47
2022-08-12T02:00:55.593Z,98514.03
2022-08-12T02:01:59.538Z,98509.81
2022-08-12T02:03:17.306Z,98512.09
2022-08-12T02:05:01.489Z,98511.25
2022-08-12T02:06:13.679Z,98515.03
2022-08-12T02:07:56.881Z,98513.81
2022-08-12T02:09:01.250Z,98519.16
2022-08-12T02:10:49.983Z,98522.97
2022-08-12T02:12:09.252Z,98526.75
2022-08-12T02:13:41.894Z,98523.25
2022-08-12T02:15:03.007Z,98530.50
2022-08-12T02:16:31.853Z,98529.44
2022-08-12T02:17:56.626Z,98533.72
2022-08-12T02:19:00.586Z,98537.41
2022-08-12T02:20:51.772Z,98526.47
2022-08-12T02:22:16.973Z,98525.13
2022-08-12T02:23:20.348Z,98525.06
2022-08-12T02:24:23.919Z,98523.09
2022-08-12T02:25:43.124Z,98527.66
2022-08-12T02:26:47.707Z,98526.84
2022-08-12T02:27:55.781Z,98521.44
2022-08-12T02:28:57.484Z,98525.19
2022-08-12T02:29:59.024Z,98521.28
2022-08-12T02:31:09.053Z,98520.16
2022-08-12T02:32:11.288Z,98523.22
2022-08-12T02:33:13.107Z,98518.97
2022-08-12T02:34:15.432Z,98525.50
2022-08-12T02:35:23.925Z,98514.25
2022-08-12T02:36:25.514Z,98515.75
2022-08-12T02:37:31.271Z,98523.41
2022-08-12T02:38:33.246Z,98511.03
2022-08-12T02:39:37.200Z,98519.41
2022-08-12T02:40:41.763Z,98516.72
2022-08-12T02:41:45.888Z,98519.09
2022-08-12T02:42:56.201Z,98524.47
2022-08-12T02:44:08.395Z,98520.94
2022-08-12T02:45:14.312Z,98523.53
2022-08-12T02:46:20.595Z,98523.53
2022-08-12T02:47:58.893Z,98512.78
2022-08-12T02:48:51.695Z,98511.94
2022-08-12T02:49:56.419Z,98513.09
2022-08-12T02:51:04.415Z,98510.31
2022-08-12T02:52:06.979Z,98513.38
2022-08-12T02:53:09.636Z,98509.13
2022-08-12T02:54:11.699Z,98508.69
2022-08-12T02:55:28.299Z,98505.25
2022-08-12T02:56:36.872Z,98507.59
2022-08-12T02:57:40.403Z,98506.75
2022-08-12T02:58:45.269Z,98504.06
2022-08-12T02:59:49.333Z,98510.63
2022-08-12T03:00:51.629Z,98499.47
2022-08-12T03:02:00.089Z,98507.16
2022-08-12T03:03:07.444Z,98506.75
2022-08-12T03:04:15.294Z,98497.91
2022-08-12T03:05:23.963Z,98507.88
2022-08-12T03:06:32.159Z,98505.97
2022-08-12T03:07:59.717Z,98499.38
2022-08-12T03:09:02.776Z,98503.22
2022-08-12T03:10:15.909Z,98503.97
2022-08-12T03:11:29.012Z,98507.03
2022-08-12T03:12:51.960Z,98500.94
2022-08-12T03:13:58.670Z,98507.44
2022-08-12T03:15:04.677Z,98504.75
2022-08-12T03:16:07.150Z,98502.81
2022-08-12T03:17:19.371Z,98505.47
2022-08-12T03:18:31.369Z,98498.53
2022-08-12T03:19:32.860Z,98497.75
2022-08-12T03:20:37.476Z,98501.78
2022-08-12T03:22:05.605Z,98500.94
2022-08-12T03:23:04.928Z,98494.38
2022-08-12T03:24:07.380Z,98502.34
2022-08-12T03:25:20.037Z,98501.94
2022-08-12T03:26:22.363Z,98510.78
2022-08-12T03:27:26.904Z,98499.56
2022-08-12T03:28:33.444Z,98497.97
2022-08-12T03:29:49.963Z,98499.13
2022-08-12T03:30:56.795Z,98509.00
2022-08-12T03:32:03.279Z,98502.81
2022-08-12T03:33:06.107Z,98505.06
2022-08-12T03:34:10.670Z,98512.69
2022-08-12T03:35:36.963Z,98510.34
2022-08-12T03:36:41.939Z,98515.28
2022-08-12T03:37:45.509Z,98510.25
2022-08-12T03:38:49.183Z,98511.72
2022-08-12T03:39:50.747Z,98510.53
2022-08-12T03:41:03.655Z,98510.09
2022-08-12T03:42:30.400Z,98511.22
2022-08-12T03:43:38.835Z,98505.78
2022-08-12T03:44:56.389Z,98508.06
2022-08-12T03:46:01.453Z,98512.19
2022-08-12T03:47:11.772Z,98504.88
2022-08-12T03:48:18.879Z,98507.19
2022-08-12T03:49:21.103Z,98511.72
2022-08-12T03:50:22.694Z,98493.56
2022-08-12T03:51:25.899Z,98507.38
2022-08-12T03:52:27.595Z,98507.75
2022-08-12T03:53:31.155Z,98504.28
2022-08-12T03:54:32.686Z,98508.09
2022-08-12T03:55:35.106Z,98508.88
2022-08-12T03:56:37.211Z,98504.66
2022-08-12T03:57:38.954Z,98507.34
2022-08-12T03:58:42.134Z,98503.06
2022-08-12T03:59:43.727Z,98512.63
2022-08-12T04:00:45.415Z,98509.50
2022-08-12T04:01:47.170Z,98507.84
2022-08-12T04:02:48.842Z,98515.47
2022-08-12T04:03:51.747Z,98509.63
2022-08-12T04:04:53.314Z,98508.84
2022-08-12T04:05:56.768Z,98514.97
2022-08-12T04:06:59.014Z,98514.91
2022-08-12T04:08:00.517Z,98518.34
2022-08-12T04:09:03.877Z,98519.13
2022-08-12T04:10:06.309Z,98520.63
2022-08-12T04:11:07.885Z,98524.44
2022-08-12T04:12:11.315Z,98521.31
2022-08-12T04:13:12.900Z,98515.94
2022-08-12T04:14:16.586Z,98516.28
2022-08-12T04:15:19.991Z,98521.22
2022-08-12T04:16:21.982Z,98515.06
2022-08-12T04:17:24.591Z,98519.66
2022-08-12T04:18:26.535Z,98524.25
2022-08-12T04:19:28.924Z,98518.78
2022-08-12T04:20:30.750Z,98520.03
2022-08-12T04:21:32.447Z,98522.69
2022-08-12T04:22:34.006Z,98518.03
2022-08-12T04:23:36.674Z,98516.91
2022-08-12T04:24:40.948Z,98513.03
2022-08-12T04:25:43.568Z,98521.94
2022-08-12T04:26:45.107Z,98522.34
2022-08-12T04:27:47.492Z,98514.31
2022-08-12T04:28:49.103Z,98514.75
2022-08-12T04:30:31.933Z,98519.75
2022-08-12T04:31:13.175Z,98510.47
2022-08-12T04:32:14.844Z,98516.28
2022-08-12T04:33:16.731Z,98516.28
2022-08-12T04:34:18.289Z,98517.44
2022-08-12T04:35:20.512Z,98516.28
2022-08-12T04:36:22.038Z,98519.75
2022-08-12T04:37:23.583Z,98517.50
2022-08-12T04:38:25.455Z,98515.16
2022-08-12T04:39:28.013Z,98520.97
2022-08-12T04:40:32.985Z,98516.81
2022-08-12T04:41:35.599Z,98521.03
2022-08-12T04:42:37.175Z,98516.44
2022-08-12T04:43:59.944Z,98515.34
2022-08-12T04:45:00.254Z,98516.88
2022-08-12T04:46:01.813Z,98514.97
2022-08-12T04:47:03.584Z,98516.13
2022-08-12T04:48:06.265Z,98518.84
2022-08-12T04:49:08.461Z,98517.75
2022-08-12T04:50:33.719Z,98514.72
2022-08-12T04:51:33.703Z,98519.38
2022-08-12T04:52:35.312Z,98519.81
2022-08-12T04:53:36.927Z,98518.75
2022-08-12T04:54:38.614Z,98523.16
2022-08-12T04:55:41.481Z,98521.38
2022-08-12T04:56:44.534Z,98521.56
2022-08-12T04:58:09.535Z,98526.69
2022-08-12T04:59:11.132Z,98541.44
2022-08-12T05:00:14.210Z,98533.09
2022-08-12T05:01:15.825Z,98532.09
2022-08-12T05:02:20.472Z,98535.84
2022-08-12T05:03:22.329Z,98535.22
2022-08-12T05:04:24.346Z,98531.66
2022-08-12T05:05:26.352Z,98530.25
2022-08-12T05:06:27.900Z,98529.28
2022-08-12T05:07:29.488Z,98524.56
2022-08-12T05:08:31.409Z,98532.34
2022-08-12T05:09:59.469Z,98522.34
2022-08-12T05:10:54.666Z,98533.53
2022-08-12T05:11:56.262Z,98532.06
2022-08-12T05:13:00.385Z,98531.81
2022-08-12T05:14:02.211Z,98532.22
2022-08-12T05:15:19.410Z,98530.06
2022-08-12T05:16:32.533Z,98532.03
2022-08-12T05:17:37.882Z,98527.56
2022-08-12T05:18:40.243Z,98528.09
2022-08-12T05:19:47.483Z,98531.31
2022-08-12T05:20:50.561Z,98529.56
2022-08-12T05:21:52.614Z,98524.31
2022-08-12T05:23:13.069Z,98533.63
2022-08-12T05:24:15.233Z,98531.44
2022-08-12T05:25:18.402Z,98536.16
2022-08-12T05:26:20.315Z,98529.69
2022-08-12T05:27:22.053Z,98535.94
2022-08-12T05:28:25.624Z,98530.28
2022-08-12T05:30:07.125Z,98536.84
2022-08-12T05:30:48.818Z,98533.63
2022-08-12T05:31:50.413Z,98531.34
2022-08-12T05:32:53.761Z,98532.84
2022-08-12T05:33:55.559Z,98522.06
2022-08-12T05:34:57.081Z,98528.44
2022-08-12T05:35:59.300Z,98527.72
2022-08-12T05:37:00.847Z,98535.25
2022-08-12T05:38:04.110Z,98533.22
2022-08-12T05:39:05.616Z,98534.75
2022-08-12T05:40:11.220Z,98531.56
2022-08-12T05:41:13.129Z,98543.66
2022-08-12T05:42:14.928Z,98539.22
2022-08-12T05:43:16.701Z,98541.63
2022-08-12T05:44:18.244Z,98543.78
2022-08-12T05:45:19.862Z,98544.66
2022-08-12T05:46:23.232Z,98551.03
2022-08-12T05:47:24.778Z,98549.78
2022-08-12T05:48:47.271Z,98555.72
2022-08-12T05:49:48.994Z,98559.25
2022-08-12T05:50:50.701Z,98556.94
2022-08-12T05:51:52.394Z,98550.78
2022-08-12T05:52:54.080Z,98559.22
2022-08-12T05:53:56.811Z,98558.34
2022-08-12T05:54:59.568Z,98561.75
2022-08-12T05:56:01.045Z,98560.53
2022-08-12T05:57:03.249Z,98555.53
2022-08-12T05:58:05.285Z,98566.22
2022-08-12T05:59:07.515Z,98567.63
2022-08-12T06:00:09.387Z,98563.31
2022-08-12T06:02:11.506Z,98568.25
2022-08-12T06:02:36.015Z,98565.00
2022-08-12T06:03:37.641Z,98566.97
2022-08-12T06:04:39.203Z,98563.81
2022-08-12T06:05:43.142Z,98565.75
2022-08-12T06:06:57.395Z,98565.81
2022-08-12T06:08:02.259Z,98564.47
2022-08-12T06:09:04.414Z,98567.94
2022-08-12T06:10:06.170Z,98558.50
2022-08-12T06:11:07.691Z,98565.47
2022-08-12T06:12:09.393Z,98556.91
2022-08-12T06:13:10.895Z,98560.38
2022-08-12T06:14:12.427Z,98566.25
2022-08-12T06:15:13.919Z,98567.03
2022-08-12T06:16:18.268Z,98562.00
2022-08-12T06:17:19.784Z,98569.72
2022-08-12T06:18:21.380Z,98557.72
2022-08-12T06:19:23.006Z,98561.22
2022-08-12T06:20:29.080Z,98567.00
2022-08-12T06:21:31.539Z,98568.91
2022-08-12T06:22:33.007Z,98569.59
2022-08-12T06:23:38.105Z,98568.75
2022-08-12T06:24:42.111Z,98570.97
2022-08-12T06:25:43.651Z,98572.47
2022-08-12T06:26:45.127Z,98570.22
2022-08-12T06:28:07.690Z,98570.28
2022-08-12T06:29:09.880Z,98564.25
2022-08-12T06:30:16.296Z,98569.72
2022-08-12T06:31:26.995Z,98566.88
2022-08-12T06:32:28.899Z,98562.25
2022-08-12T06:33:57.555Z,98560.19
2022-08-12T06:35:24.167Z,98554.56
2022-08-12T06:36:15.700Z,98563.38
2022-08-12T06:37:22.854Z,98553.84
2022-08-12T06:38:29.338Z,98554.34
2022-08-12T06:39:30.957Z,98557.28
2022-08-12T06:40:32.652Z,98554.59
2022-08-12T06:41:34.150Z,98554.53
2022-08-12T06:42:36.696Z,98558.75
2022-08-12T06:44:05.455Z,98554.50
2022-08-12T06:45:00.110Z,98561.03
2022-08-12T06:46:01.670Z,98562.03
2022-08-12T06:47:03.226Z,98554.69
2022-08-12T06:48:07.789Z,98551.34
2022-08-12T06:49:09.304Z,98563.25
2022-08-12T06:50:11.687Z,98557.41
2022-08-12T06:51:13.181Z,98553.22
2022-08-12T06:52:14.677Z,98556.50
2022-08-12T06:53:16.293Z,98556.97
2022-08-12T06:54:31.314Z,98558.50
2022-08-12T06:55:33.761Z,98556.94
2022-08-12T06:57:02.361Z,98562.69
2022-08-12T06:58:07.733Z,98557.25
2022-08-12T06:59:11.763Z,98553.50
2022-08-12T07:00:14.438Z,98547.03
2022-08-12T07:01:16.094Z,98550.06
2022-08-12T07:02:17.745Z,98543.31
2022-08-12T07:03:23.227Z,98549.41
2022-08-12T07:04:40.313Z,98547.19
2022-08-12T07:05:41.899Z,98547.91
2022-08-12T07:06:43.506Z,98552.72
2022-08-12T07:07:45.023Z,98549.88
2022-08-12T07:08:46.601Z,98551.19
2022-08-12T07:10:01.327Z,98564.91
2022-08-12T07:11:10.051Z,98559.94
2022-08-12T07:12:11.535Z,98561.44
2022-08-12T07:13:13.119Z,98559.38
2022-08-12T07:14:14.738Z,98561.44
2022-08-12T07:15:16.385Z,98560.31
2022-08-12T07:16:19.307Z,98562.50
2022-08-12T07:17:20.859Z,98566.94
2022-08-12T07:18:24.467Z,98562.38
2022-08-12T07:19:25.992Z,98561.44
2022-08-12T07:20:52.972Z,98561.75
2022-08-12T07:21:59.681Z,98564.94
2022-08-12T07:23:05.664Z,98560.94
2022-08-12T07:24:07.234Z,98554.13
2022-08-12T07:25:09.716Z,98552.97
2022-08-12T07:26:13.055Z,98551.44
2022-08-12T07:27:14.557Z,98553.00
2022-08-12T07:28:19.809Z,98551.78
2022-08-12T07:29:21.311Z,98552.94
2022-08-12T07:30:23.282Z,98557.41
2022-08-12T07:31:24.885Z,98557.91
2022-08-12T07:32:29.530Z,98561.59
2022-08-12T07:33:31.492Z,98561.06
2022-08-12T07:34:32.980Z,98562.03
2022-08-12T07:35:37.060Z,98557.88
2022-08-12T07:36:38.655Z,98559.19
2022-08-12T07:37:41.187Z,98555.53
2022-08-12T07:38:45.083Z,98562.59
2022-08-12T07:39:51.281Z,98555.19
2022-08-12T07:41:15.500Z,98553.78
2022-08-12T07:42:17.453Z,98561.72
2022-08-12T07:43:18.997Z,98556.03
2022-08-12T07:44:20.549Z,98555.41
2022-08-12T07:45:22.794Z,98560.50
2022-08-12T07:46:28.225Z,98556.31
2022-08-12T07:47:29.727Z,98560.81
2022-08-12T07:48:46.325Z,98558.19
2022-08-12T07:50:04.695Z,98561.63
2022-08-12T07:51:08.392Z,98553.31
2022-08-12T07:52:09.928Z,98557.78
2022-08-12T07:53:11.733Z,98558.75
2022-08-12T07:54:13.286Z,98555.25
2022-08-12T07:55:16.812Z,98557.66
2022-08-12T07:56:18.662Z,98554.13
2022-08-12T07:57:20.371Z,98557.91
2022-08-12T07:58:21.882Z,98548.72
2022-08-12T07:59:23.577Z,98554.50
2022-08-12T08:00:33.095Z,98555.50
2022-08-12T08:01:35.975Z,98556.25
2022-08-12T08:02:37.790Z,98550.41
2022-08-12T08:03:47.639Z,98545.16
2022-08-12T08:04:50.735Z,98535.66
2022-08-12T08:05:52.985Z,98547.25
2022-08-12T08:06:54.857Z,98543.41
2022-08-12T08:07:56.482Z,98543.81
2022-08-12T08:08:59.071Z,98544.28
2022-08-12T08:10:02.182Z,98543.81
2022-08-12T08:11:04.382Z,98537.13
2022-08-12T08:12:06.175Z,98540.41
2022-08-12T08:13:08.063Z,98546.00
2022-08-12T08:14:10.173Z,98545.78
2022-08-12T08:15:12.110Z,98542.63
2022-08-12T08:16:13.647Z,98543.75
2022-08-12T08:17:15.169Z,98534.25
2022-08-12T08:18:26.789Z,98537.81
2022-08-12T08:19:29.061Z,98540.00
2022-08-12T08:20:33.190Z,98529.03
2022-08-12T08:21:34.884Z,98527.03
2022-08-12T08:22:41.936Z,98534.72
2022-08-12T08:23:46.317Z,98532.06
2022-08-12T08:24:48.726Z,98527.84
2022-08-12T08:25:50.257Z,98535.53
2022-08-12T08:26:54.022Z,98533.16
2022-08-12T08:27:55.613Z,98533.59
2022-08-12T08:28:57.235Z,98530.59
2022-08-12T08:29:58.974Z,98534.84
2022-08-12T08:31:00.460Z,98540.31
2022-08-12T08:32:02.124Z,98539.28
2022-08-12T08:33:07.260Z,98540.66
2022-08-12T08:34:33.536Z,98542.00
2022-08-12T08:35:47.820Z,98542.25
2022-08-12T08:36:49.427Z,98543.06
2022-08-12T08:37:52.028Z,98544.25
2022-08-12T08:38:58.092Z,98546.50
2022-08-12T08:40:00.409Z,98548.00
2022-08-12T08:41:03.737Z,98543.56
2022-08-12T08:42:15.965Z,98539.97
2022-08-12T08:43:21.644Z,98543.91
2022-08-12T08:44:23.337Z,98544.09
2022-08-12T08:45:24.983Z,98539.13
2022-08-12T08:46:27.335Z,98540.00
2022-08-12T08:47:28.875Z,98539.69
2022-08-12T08:48:30.366Z,98540.91
2022-08-12T08:49:31.909Z,98538.91
2022-08-12T08:50:36.695Z,98541.19
2022-08-12T08:51:39.281Z,98537.28
2022-08-12T08:52:42.053Z,98536.09
2022-08-12T08:53:43.704Z,98539.13
2022-08-12T08:54:53.505Z,98534.38
2022-08-12T08:56:04.772Z,98536.34
2022-08-12T08:57:07.882Z,98533.59
2022-08-12T08:58:10.184Z,98526.25
2022-08-12T08:59:12.418Z,98524.31
2022-08-12T09:00:16.291Z,98525.38
2022-08-12T09:01:18.459Z,98531.50
2022-08-12T09:02:20.322Z,98523.06
2022-08-12T09:04:21.220Z,98526.38
2022-08-12T09:05:12.894Z,98529.22
2022-08-12T09:06:06.851Z,98529.25
2022-08-12T09:07:17.094Z,98520.72
2022-08-12T09:08:26.571Z,98520.72
2022-08-12T09:10:50.841Z,98526.25
2022-08-12T09:12:11.967Z,98526.13
2022-08-12T09:14:36.346Z,98519.34
2022-08-12T09:15:38.742Z,98514.69
2022-08-12T09:16:43.237Z,98520.78
2022-08-12T09:17:52.565Z,98519.97
2022-08-12T09:18:54.161Z,98519.50
2022-08-12T09:19:58.349Z,98529.06
2022-08-12T09:21:01.967Z,98520.53
2022-08-12T09:22:04.750Z,98511.13
2022-08-12T09:23:57.372Z,98509.88
2022-08-12T09:24:30.127Z,98516.09
2022-08-12T09:25:33.708Z,98513.22
2022-08-12T09:26:38.055Z,98512.13
2022-08-12T09:28:18.234Z,98515.59
2022-08-12T09:29:12.318Z,98518.81
2022-08-12T09:30:14.618Z,98510.78
2022-08-12T09:32:07.336Z,98512.97
2022-08-12T09:33:05.152Z,98507.72
2022-08-12T09:34:26.030Z,98509.59
2022-08-12T09:35:28.595Z,98507.34
2022-08-12T09:36:31.024Z,98500.38
2022-08-12T09:37:58.817Z,98498.50
2022-08-12T09:39:01.165Z,98507.69
2022-08-12T09:41:01.487Z,98507.63
2022-08-12T09:42:08.911Z,98508.41
2022-08-12T09:42:57.751Z,98506.34
2022-08-12T09:44:17.082Z,98506.25
2022-08-12T09:46:19.239Z,98507.28
2022-08-12T09:46:54.259Z,98499.69
2022-08-12T09:48:00.291Z,98500.28
2022-08-12T09:49:04.040Z,98489.63
2022-08-12T09:50:20.177Z,98490.94
2022-08-12T09:51:22.871Z,98486.38
2022-08-12T09:52:24.493Z,98501.53
2022-08-12T09:53:38.605Z,98494.25
2022-08-12T09:54:43.001Z,98489.41
2022-08-12T09:56:07.329Z,98489.59
2022-08-12T09:58:45.473Z,98475.94
2022-08-12T09:58:57.279Z,98482.44
2022-08-12T10:00:12.641Z,98483.41
2022-08-12T10:01:23.052Z,98489.72
2022-08-12T10:02:45.528Z,98475.47
2022-08-12T10:04:04.230Z,98473.53
2022-08-12T10:05:09.381Z,98478.72
2022-08-12T10:06:19.500Z,98480.47
2022-08-12T10:07:28.665Z,98473.56
2022-08-12T10:08:41.318Z,98469.31
2022-08-12T10:09:58.185Z,98467.00
2022-08-12T10:11:03.135Z,98465.88
2022-08-12T10:12:10.265Z,98460.28
2022-08-12T10:13:34.877Z,98467.09
2022-08-12T10:14:40.029Z,98467.56
2022-08-12T10:16:02.145Z,98462.41
2022-08-12T10:17:08.504Z,98458.75
2022-08-12T10:18:12.929Z,98452.66
2022-08-12T10:19:16.981Z,98456.66
2022-08-12T10:20:19.384Z,98461.25
2022-08-12T10:21:35.858Z,98454.97
2022-08-12T10:22:41.250Z,98461.75
2022-08-12T10:23:46.124Z,98457.00
2022-08-12T10:24:53.001Z,98458.34
2022-08-12T10:26:34.566Z,98456.47
2022-08-12T10:27:16.407Z,98460.16
2022-08-12T10:28:25.157Z,98441.59
2022-08-12T10:30:37.236Z,98445.63
2022-08-12T10:30:58.317Z,98445.13
2022-08-12T10:32:20.516Z,98433.13
2022-08-12T10:33:30.820Z,98443.38
2022-08-12T10:34:34.532Z,98440.84
2022-08-12T10:35:38.200Z,98434.94
2022-08-12T10:36:42.923Z,98433.84
2022-08-12T10:38:33.459Z,98424.06
2022-08-12T10:40:00.858Z,98437.13
2022-08-12T10:40:33.505Z,98436.25
2022-08-12T10:41:57.242Z,98432.59
2022-08-12T10:42:57.067Z,98437.97
2022-08-12T10:44:02.283Z,98431.72
2022-08-12T10:45:07.040Z,98438.00
2022-08-12T10:46:13.158Z,98442.19
2022-08-12T10:48:01.129Z,98434.38
2022-08-12T10:48:37.770Z,98433.66
2022-08-12T10:50:02.792Z,98433.78
2022-08-12T10:51:03.931Z,98440.78
2022-08-12T10:52:34.778Z,98434.16
2022-08-12T10:53:44.100Z,98439.03
2022-08-12T10:54:49.294Z,98435.69
2022-08-12T10:55:56.067Z,98438.16
2022-08-12T10:56:59.557Z,98429.69
2022-08-12T10:58:27.331Z,98430.19
2022-08-12T11:00:29.233Z,98426.88
2022-08-12T11:00:55.438Z,98423.78
2022-08-12T11:04:17.964Z,98426.06
2022-08-12T11:04:18.338Z,98432.03
2022-08-12T11:04:49.527Z,98428.97
2022-08-12T11:07:03.012Z,98435.38
2022-08-12T11:08:37.283Z,98420.72
2022-08-12T11:08:43.232Z,98419.84
2022-08-12T11:09:59.683Z,98419.91
2022-08-12T11:11:13.306Z,98416.97
2022-08-12T11:12:55.896Z,98420.25
2022-08-12T11:13:46.834Z,98411.38
2022-08-12T11:14:51.473Z,98410.72
2022-08-12T11:16:04.014Z,98399.88
2022-08-12T11:17:43.143Z,98402.69
2022-08-12T11:18:37.058Z,98398.31
2022-08-12T11:19:40.494Z,98398.47
2022-08-12T11:20:42.020Z,98401.44
2022-08-12T11:21:57.811Z,98401.72
2022-08-12T11:23:03.496Z,98395.81
2022-08-12T11:24:06.851Z,98405.09
2022-08-12T11:25:55.492Z,98398.09
2022-08-12T11:26:49.584Z,98398.22
2022-08-12T11:27:51.488Z,98391.63
2022-08-12T11:29:05.394Z,98394.28
2022-08-12T11:30:31.470Z,98397.38
2022-08-12T11:31:29.672Z,98389.75
2022-08-12T11:32:51.119Z,98394.84
2022-08-12T11:34:04.138Z,98396.59
2022-08-12T11:35:09.335Z,98387.31
2022-08-12T11:36:13.947Z,98392.63
2022-08-12T11:37:25.562Z,98390.13
2022-08-12T11:38:28.172Z,98383.91
2022-08-12T11:40:52.362Z,98394.97
2022-08-12T11:41:54.138Z,98383.91
2022-08-12T11:43:17.132Z,98394.00
2022-08-12T11:44:37.257Z,98386.13
2022-08-12T11:45:41.873Z,98380.25
2022-08-12T11:46:51.506Z,98391.94
2022-08-12T11:47:55.946Z,98386.66
2022-08-12T11:48:57.538Z,98384.38
2022-08-12T11:49:59.208Z,98378.47
2022-08-12T11:51:00.915Z,98379.22
2022-08-12T11:52:03.539Z,98371.22
2022-08-12T11:53:05.714Z,98377.13
2022-08-12T11:54:29.470Z,98371.03
2022-08-12T11:55:31.454Z,98371.16
2022-08-12T11:56:38.073Z,98378.09
2022-08-12T11:58:19.746Z,98378.94
2022-08-12T12:02:04.918Z,98365.88
2022-08-12T12:03:06.891Z,98362.22
2022-08-12T12:04:08.785Z,98364.50
2022-08-12T12:05:12.545Z,98360.03
2022-08-12T12:06:16.214Z,98364.53
2022-08-12T12:07:18.786Z,98372.94
2022-08-12T12:08:38.950Z,98369.00
2022-08-12T12:09:52.314Z,98372.38
2022-08-12T12:10:55.200Z,98379.69
2022-08-12T12:11:57.708Z,98366.81
2022-08-12T12:12:59.265Z,98371.09
2022-08-12T12:14:06.395Z,98374.38
2022-08-12T12:15:11.079Z,98374.38
2022-08-12T12:16:14.946Z,98373.25
2022-08-12T12:17:16.526Z,98377.38
2022-08-12T12:18:32.238Z,98369.78
2022-08-12T12:19:45.177Z,98363.81
2022-08-12T12:20:48.348Z,98374.78
2022-08-12T12:21:50.005Z,98364.19
2022-08-12T12:22:51.473Z,98370.16
2022-08-12T12:23:53.006Z,98372.84
2022-08-12T12:25:08.964Z,98374.94
2022-08-12T12:26:34.701Z,98365.00
2022-08-12T12:28:05.144Z,98368.50
2022-08-12T12:30:13.245Z,98361.47
2022-08-12T12:30:30.173Z,98368.22
2022-08-12T12:32:10.281Z,98360.13
2022-08-12T12:32:53.748Z,98364.50
2022-08-12T12:33:58.354Z,98360.13
2022-08-12T12:35:13.981Z,98361.34
2022-08-12T12:36:30.254Z,98356.31
2022-08-12T12:38:03.292Z,98353.38
2022-08-12T12:38:53.944Z,98345.69
2022-08-12T12:39:58.149Z,98356.19
2022-08-12T12:41:00.344Z,98364.50
2022-08-12T12:42:44.080Z,98357.28
2022-08-12T12:43:42.998Z,98347.56
2022-08-12T12:44:51.094Z,98355.75
2022-08-12T12:45:55.361Z,98348.75
2022-08-12T12:46:57.151Z,98355.38
2022-08-12T12:48:07.879Z,98344.34
2022-08-12T12:49:11.032Z,98354.63
2022-08-12T12:50:12.821Z,98353.88
2022-08-12T12:52:17.268Z,98346.97
2022-08-12T12:52:55.934Z,98343.34
2022-08-12T12:54:08.062Z,98338.44
2022-08-12T12:55:11.335Z,98341.13
2022-08-12T12:56:16.020Z,98348.66
2022-08-12T12:57:17.566Z,98334.25
2022-08-12T12:58:37.770Z,98340.00
2022-08-12T12:59:56.693Z,98330.88
2022-08-12T13:00:58.587Z,98336.84
2022-08-12T13:02:09.249Z,98330.94
2022-08-12T13:03:19.136Z,98328.19
2022-08-12T13:04:21.115Z,98344.25
2022-08-12T13:05:27.577Z,98331.16
2022-08-12T13:06:31.686Z,98329.22
2022-08-12T13:07:54.514Z,98333.84
2022-08-12T13:09:03.033Z,98339.56
2022-08-12T13:10:05.485Z,98342.03
2022-08-12T13:11:07.923Z,98333.06
2022-08-12T13:12:10.503Z,98335.88
2022-08-12T13:14:09.922Z,98331.28
2022-08-12T13:14:35.064Z,98334.63
2022-08-12T13:15:45.471Z,98335.28
2022-08-12T13:16:49.589Z,98337.16
2022-08-12T13:18:02.184Z,98326.72
2022-08-12T13:19:04.911Z,98328.72